sensor_id;sensor_type;location;lat;lon;timestamp;temperature;humidity
45207;DHT22;30950;53.086;21.576;2023-05-23T00:00:21;15.50;97.80
45207;DHT22;30950;53.086;21.576;2023-05-23T00:03:10;15.40;98.10
45207;DHT22;30950;53.086;21.576;2023-05-23T00:05:37;15.40;98.80
45207;DHT22;30950;53.086;21.576;2023-05-23T00:08:05;15.40;99.20
45207;DHT22;30950;53.086;21.576;2023-05-23T00:10:32;15.40;99.90
45207;DHT22;30950;53.086;21.576;2023-05-23T00:12:59;15.30;99.90
45207;DHT22;30950;53.086;21.576;2023-05-23T00:15:26;15.30;99.90
45207;DHT22;30950;53.086;21.576;2023-05-23T00:17:54;15.30;99.90
45207;DHT22;30950;53.086;21.576;2023-05-23T00:20:21;15.30;99.90
45207;DHT22;30950;53.086;21.576;2023-05-23T00:22:49;15.30;99.90
45207;DHT22;30950;53.086;21.576;2023-05-23T00:25:16;15.30;99.90
45207;DHT22;30950;53.086;21.576;2023-05-23T00:27:43;15.30;99.90
45207;DHT22;30950;53.086;21.576;2023-05-23T00:30:10;15.20;99.90
45207;DHT22;30950;53.086;21.576;2023-05-23T00:32:38;15.30;99.90
45207;DHT22;30950;53.086;21.576;2023-05-23T00:35:05;15.30;99.90
45207;DHT22;30950;53.086;21.576;2023-05-23T00:37:33;15.40;99.90
45207;DHT22;30950;53.086;21.576;2023-05-23T00:40:01;15.40;99.90
45207;DHT22;30950;53.086;21.576;2023-05-23T00:42:28;15.40;99.90
45207;DHT22;30950;53.086;21.576;2023-05-23T00:44:55;15.40;99.90
45207;DHT22;30950;53.086;21.576;2023-05-23T00:47:23;15.40;99.90
45207;DHT22;30950;53.086;21.576;2023-05-23T00:49:50;15.40;99.90
45207;DHT22;30950;53.086;21.576;2023-05-23T00:52:17;15.40;99.90
45207;DHT22;30950;53.086;21.576;2023-05-23T00:54:44;15.30;99.90
45207;DHT22;30950;53.086;21.576;2023-05-23T00:57:12;15.40;99.90
45207;DHT22;30950;53.086;21.576;2023-05-23T00:59:39;15.40;99.90
45207;DHT22;30950;53.086;21.576;2023-05-23T01:02:07;15.40;99.90
45207;DHT22;30950;53.086;21.576;2023-05-23T01:04:35;15.40;99.90
45207;DHT22;30950;53.086;21.576;2023-05-23T01:07:03;15.40;99.90
45207;DHT22;30950;53.086;21.576;2023-05-23T01:09:30;15.40;99.90
45207;DHT22;30950;53.086;21.576;2023-05-23T01:14:50;15.30;99.90
45207;DHT22;30950;53.086;21.576;2023-05-23T01:17:28;15.30;99.90
45207;DHT22;30950;53.086;21.576;2023-05-23T01:20:02;15.20;99.90
45207;DHT22;30950;53.086;21.576;2023-05-23T01:28:32;15.00;99.90
45207;DHT22;30950;53.086;21.576;2023-05-23T01:31:03;15.00;99.90
45207;DHT22;30950;53.086;21.576;2023-05-23T01:33:31;14.90;99.90
45207;DHT22;30950;53.086;21.576;2023-05-23T01:36:01;14.90;99.90
45207;DHT22;30950;53.086;21.576;2023-05-23T01:38:31;14.80;99.90
45207;DHT22;30950;53.086;21.576;2023-05-23T01:40:59;14.80;99.90
45207;DHT22;30950;53.086;21.576;2023-05-23T01:43:26;14.80;99.90
45207;DHT22;30950;53.086;21.576;2023-05-23T01:45:55;14.70;99.90
45207;DHT22;30950;53.086;21.576;2023-05-23T01:48:25;14.70;99.90
45207;DHT22;30950;53.086;21.576;2023-05-23T01:50:52;14.60;99.90
45207;DHT22;30950;53.086;21.576;2023-05-23T01:53:22;14.60;99.90
45207;DHT22;30950;53.086;21.576;2023-05-23T01:55:50;14.50;99.90
45207;DHT22;30950;53.086;21.576;2023-05-23T01:58:20;14.50;99.90
45207;DHT22;30950;53.086;21.576;2023-05-23T02:00:48;14.50;99.90
45207;DHT22;30950;53.086;21.576;2023-05-23T02:03:15;14.40;99.90
45207;DHT22;30950;53.086;21.576;2023-05-23T02:05:43;14.40;99.90
45207;DHT22;30950;53.086;21.576;2023-05-23T02:08:10;14.40;99.90
45207;DHT22;30950;53.086;21.576;2023-05-23T02:10:38;14.30;99.90
45207;DHT22;30950;53.086;21.576;2023-05-23T02:13:05;14.40;99.90
45207;DHT22;30950;53.086;21.576;2023-05-23T02:15:32;14.30;99.90
45207;DHT22;30950;53.086;21.576;2023-05-23T02:17:59;14.30;99.90
45207;DHT22;30950;53.086;21.576;2023-05-23T02:20:29;14.20;99.90
45207;DHT22;30950;53.086;21.576;2023-05-23T02:22:57;14.20;99.90
45207;DHT22;30950;53.086;21.576;2023-05-23T02:25:24;14.20;99.90
45207;DHT22;30950;53.086;21.576;2023-05-23T02:27:51;14.10;99.90
45207;DHT22;30950;53.086;21.576;2023-05-23T02:30:18;14.10;99.90
45207;DHT22;30950;53.086;21.576;2023-05-23T02:32:48;14.10;99.90
45207;DHT22;30950;53.086;21.576;2023-05-23T02:35:16;14.10;99.90
45207;DHT22;30950;53.086;21.576;2023-05-23T02:37:43;14.00;99.90
45207;DHT22;30950;53.086;21.576;2023-05-23T02:40:11;14.00;99.90
45207;DHT22;30950;53.086;21.576;2023-05-23T02:42:38;13.90;99.90
45207;DHT22;30950;53.086;21.576;2023-05-23T02:45:06;13.90;99.90
45207;DHT22;30950;53.086;21.576;2023-05-23T02:47:35;13.80;99.90
45207;DHT22;30950;53.086;21.576;2023-05-23T02:50:02;13.80;99.90
45207;DHT22;30950;53.086;21.576;2023-05-23T02:52:31;13.80;99.90
45207;DHT22;30950;53.086;21.576;2023-05-23T02:54:58;13.70;99.90
45207;DHT22;30950;53.086;21.576;2023-05-23T02:57:26;13.70;99.90
45207;DHT22;30950;53.086;21.576;2023-05-23T02:59:53;13.70;99.90
45207;DHT22;30950;53.086;21.576;2023-05-23T03:02:21;13.60;99.90
45207;DHT22;30950;53.086;21.576;2023-05-23T03:04:48;13.60;99.90
45207;DHT22;30950;53.086;21.576;2023-05-23T03:07:17;13.60;99.90
45207;DHT22;30950;53.086;21.576;2023-05-23T03:09:55;13.50;99.90
45207;DHT22;30950;53.086;21.576;2023-05-23T03:12:23;13.50;99.90
45207;DHT22;30950;53.086;21.576;2023-05-23T03:14:50;13.50;99.90
45207;DHT22;30950;53.086;21.576;2023-05-23T03:17:17;13.40;99.90
45207;DHT22;30950;53.086;21.576;2023-05-23T03:19:45;13.40;99.90
45207;DHT22;30950;53.086;21.576;2023-05-23T03:22:12;13.30;99.90
45207;DHT22;30950;53.086;21.576;2023-05-23T03:24:41;13.40;99.90
45207;DHT22;30950;53.086;21.576;2023-05-23T03:27:10;13.20;99.90
45207;DHT22;30950;53.086;21.576;2023-05-23T03:29:37;13.30;99.90
45207;DHT22;30950;53.086;21.576;2023-05-23T03:32:05;13.20;99.90
45207;DHT22;30950;53.086;21.576;2023-05-23T03:34:33;13.30;99.90
45207;DHT22;30950;53.086;21.576;2023-05-23T03:37:02;13.20;99.90
45207;DHT22;30950;53.086;21.576;2023-05-23T03:39:30;13.20;99.90
45207;DHT22;30950;53.086;21.576;2023-05-23T03:41:57;13.20;99.90
45207;DHT22;30950;53.086;21.576;2023-05-23T03:44:25;13.20;99.90
45207;DHT22;30950;53.086;21.576;2023-05-23T03:46:52;13.20;99.90
45207;DHT22;30950;53.086;21.576;2023-05-23T03:49:20;13.20;99.90
45207;DHT22;30950;53.086;21.576;2023-05-23T03:51:47;13.20;99.90
45207;DHT22;30950;53.086;21.576;2023-05-23T03:54:16;13.20;99.90
45207;DHT22;30950;53.086;21.576;2023-05-23T03:56:44;13.20;99.90
45207;DHT22;30950;53.086;21.576;2023-05-23T03:59:11;13.20;99.90
45207;DHT22;30950;53.086;21.576;2023-05-23T04:01:40;13.20;99.90
45207;DHT22;30950;53.086;21.576;2023-05-23T04:04:07;13.20;99.90
45207;DHT22;30950;53.086;21.576;2023-05-23T04:06:37;13.30;99.90
45207;DHT22;30950;53.086;21.576;2023-05-23T04:09:04;13.30;99.90
45207;DHT22;30950;53.086;21.576;2023-05-23T04:11:37;13.30;99.90
45207;DHT22;30950;53.086;21.576;2023-05-23T04:14:04;13.30;99.90
45207;DHT22;30950;53.086;21.576;2023-05-23T04:16:32;13.30;99.90
45207;DHT22;30950;53.086;21.576;2023-05-23T04:19:02;13.30;99.90
45207;DHT22;30950;53.086;21.576;2023-05-23T04:21:33;13.30;99.90
45207;DHT22;30950;53.086;21.576;2023-05-23T04:24:06;13.30;99.90
45207;DHT22;30950;53.086;21.576;2023-05-23T04:26:34;13.30;99.90
45207;DHT22;30950;53.086;21.576;2023-05-23T04:29:03;13.40;99.90
45207;DHT22;30950;53.086;21.576;2023-05-23T04:31:32;13.40;99.90
45207;DHT22;30950;53.086;21.576;2023-05-23T04:34:00;13.40;99.90
45207;DHT22;30950;53.086;21.576;2023-05-23T04:36:29;13.40;99.90
45207;DHT22;30950;53.086;21.576;2023-05-23T04:38:58;13.50;99.90
45207;DHT22;30950;53.086;21.576;2023-05-23T04:41:26;13.50;99.90
45207;DHT22;30950;53.086;21.576;2023-05-23T04:44:26;13.60;99.90
45207;DHT22;30950;53.086;21.576;2023-05-23T04:47:25;13.70;99.90
45207;DHT22;30950;53.086;21.576;2023-05-23T04:50:01;13.80;99.90
45207;DHT22;30950;53.086;21.576;2023-05-23T04:52:30;13.90;99.90
45207;DHT22;30950;53.086;21.576;2023-05-23T04:55:00;14.00;99.90
45207;DHT22;30950;53.086;21.576;2023-05-23T04:57:28;14.00;99.90
45207;DHT22;30950;53.086;21.576;2023-05-23T04:59:55;14.10;99.90
45207;DHT22;30950;53.086;21.576;2023-05-23T05:02:24;14.20;99.90
45207;DHT22;30950;53.086;21.576;2023-05-23T05:04:53;14.30;99.90
45207;DHT22;30950;53.086;21.576;2023-05-23T05:07:21;14.40;99.90
45207;DHT22;30950;53.086;21.576;2023-05-23T05:09:48;14.40;99.90
45207;DHT22;30950;53.086;21.576;2023-05-23T05:12:16;14.50;99.90
45207;DHT22;30950;53.086;21.576;2023-05-23T05:14:43;14.60;99.90
45207;DHT22;30950;53.086;21.576;2023-05-23T05:17:11;14.70;99.90
45207;DHT22;30950;53.086;21.576;2023-05-23T05:19:49;14.80;99.90
45207;DHT22;30950;53.086;21.576;2023-05-23T05:22:17;14.90;99.90
45207;DHT22;30950;53.086;21.576;2023-05-23T05:24:44;14.90;99.90
45207;DHT22;30950;53.086;21.576;2023-05-23T05:27:11;15.00;99.90
45207;DHT22;30950;53.086;21.576;2023-05-23T05:29:38;15.10;99.90
45207;DHT22;30950;53.086;21.576;2023-05-23T05:32:06;15.20;99.90
45207;DHT22;30950;53.086;21.576;2023-05-23T05:34:35;15.30;99.90
45207;DHT22;30950;53.086;21.576;2023-05-23T05:37:05;15.30;99.90
45207;DHT22;30950;53.086;21.576;2023-05-23T05:39:32;15.40;99.90
45207;DHT22;30950;53.086;21.576;2023-05-23T05:42:00;15.50;99.90
45207;DHT22;30950;53.086;21.576;2023-05-23T05:44:29;15.60;99.90
45207;DHT22;30950;53.086;21.576;2023-05-23T05:46:57;15.70;99.90
45207;DHT22;30950;53.086;21.576;2023-05-23T05:49:24;15.80;99.90
45207;DHT22;30950;53.086;21.576;2023-05-23T05:51:52;16.00;99.90
45207;DHT22;30950;53.086;21.576;2023-05-23T05:54:19;16.10;99.90
45207;DHT22;30950;53.086;21.576;2023-05-23T05:56:47;16.30;99.90
45207;DHT22;30950;53.086;21.576;2023-05-23T05:59:15;16.40;99.90
45207;DHT22;30950;53.086;21.576;2023-05-23T06:01:43;16.50;99.90
45207;DHT22;30950;53.086;21.576;2023-05-23T06:04:11;16.60;99.90
45207;DHT22;30950;53.086;21.576;2023-05-23T06:06:39;16.70;99.90
45207;DHT22;30950;53.086;21.576;2023-05-23T06:09:08;16.90;99.90
45207;DHT22;30950;53.086;21.576;2023-05-23T06:11:36;17.00;99.90
45207;DHT22;30950;53.086;21.576;2023-05-23T06:14:07;17.10;99.90
45207;DHT22;30950;53.086;21.576;2023-05-23T06:16:37;17.20;99.90
45207;DHT22;30950;53.086;21.576;2023-05-23T06:19:05;17.30;99.90
45207;DHT22;30950;53.086;21.576;2023-05-23T06:21:33;17.30;99.90
45207;DHT22;30950;53.086;21.576;2023-05-23T06:24:03;17.50;99.80
45207;DHT22;30950;53.086;21.576;2023-05-23T06:26:30;17.50;99.90
45207;DHT22;30950;53.086;21.576;2023-05-23T06:28:59;17.60;99.70
45207;DHT22;30950;53.086;21.576;2023-05-23T06:31:26;17.70;99.40
45207;DHT22;30950;53.086;21.576;2023-05-23T06:33:54;17.80;98.70
45207;DHT22;30950;53.086;21.576;2023-05-23T06:36:21;17.90;98.20
45207;DHT22;30950;53.086;21.576;2023-05-23T06:38:49;18.00;97.20
45207;DHT22;30950;53.086;21.576;2023-05-23T06:41:16;18.10;96.40
45207;DHT22;30950;53.086;21.576;2023-05-23T06:43:43;18.20;96.20
45207;DHT22;30950;53.086;21.576;2023-05-23T06:46:13;18.30;96.40
45207;DHT22;30950;53.086;21.576;2023-05-23T06:48:41;18.50;95.70
45207;DHT22;30950;53.086;21.576;2023-05-23T06:51:08;18.60;95.40
45207;DHT22;30950;53.086;21.576;2023-05-23T06:53:37;18.60;95.10
45207;DHT22;30950;53.086;21.576;2023-05-23T06:56:04;18.70;93.70
45207;DHT22;30950;53.086;21.576;2023-05-23T06:58:39;18.80;93.10
45207;DHT22;30950;53.086;21.576;2023-05-23T07:01:07;18.90;93.10
45207;DHT22;30950;53.086;21.576;2023-05-23T07:03:38;19.00;93.20
45207;DHT22;30950;53.086;21.576;2023-05-23T07:06:08;19.10;93.00
45207;DHT22;30950;53.086;21.576;2023-05-23T07:08:36;19.20;92.40
45207;DHT22;30950;53.086;21.576;2023-05-23T07:11:04;19.30;91.00
45207;DHT22;30950;53.086;21.576;2023-05-23T07:13:37;19.30;90.90
45207;DHT22;30950;53.086;21.576;2023-05-23T07:16:05;19.50;88.40
45207;DHT22;30950;53.086;21.576;2023-05-23T07:18:35;19.60;85.20
45207;DHT22;30950;53.086;21.576;2023-05-23T07:21:04;19.70;85.40
45207;DHT22;30950;53.086;21.576;2023-05-23T07:23:32;19.80;85.60
45207;DHT22;30950;53.086;21.576;2023-05-23T07:26:02;19.90;84.10
45207;DHT22;30950;53.086;21.576;2023-05-23T07:28:40;20.00;83.70
45207;DHT22;30950;53.086;21.576;2023-05-23T07:31:07;20.10;80.90
45207;DHT22;30950;53.086;21.576;2023-05-23T07:33:37;20.20;80.20
45207;DHT22;30950;53.086;21.576;2023-05-23T07:36:05;20.40;79.90
45207;DHT22;30950;53.086;21.576;2023-05-23T07:38:32;20.50;78.10
45207;DHT22;30950;53.086;21.576;2023-05-23T07:41:00;20.60;77.90
45207;DHT22;30950;53.086;21.576;2023-05-23T07:43:38;20.70;74.70
45207;DHT22;30950;53.086;21.576;2023-05-23T07:46:05;20.80;72.30
45207;DHT22;30950;53.086;21.576;2023-05-23T07:48:33;20.90;70.90
45207;DHT22;30950;53.086;21.576;2023-05-23T07:51:00;21.00;70.70
45207;DHT22;30950;53.086;21.576;2023-05-23T07:53:28;21.00;70.20
45207;DHT22;30950;53.086;21.576;2023-05-23T07:55:56;21.10;69.50
45207;DHT22;30950;53.086;21.576;2023-05-23T07:58:27;21.20;69.00
45207;DHT22;30950;53.086;21.576;2023-05-23T08:00:54;21.30;68.20
45207;DHT22;30950;53.086;21.576;2023-05-23T08:03:47;21.30;66.80
45207;DHT22;30950;53.086;21.576;2023-05-23T08:06:20;21.40;63.70
45207;DHT22;30950;53.086;21.576;2023-05-23T08:08:48;21.50;63.80
45207;DHT22;30950;53.086;21.576;2023-05-23T08:11:15;21.50;64.30
45207;DHT22;30950;53.086;21.576;2023-05-23T08:13:48;21.60;64.20
45207;DHT22;30950;53.086;21.576;2023-05-23T08:16:34;21.70;62.80
45207;DHT22;30950;53.086;21.576;2023-05-23T08:19:04;21.80;62.40
45207;DHT22;30950;53.086;21.576;2023-05-23T08:21:34;21.90;62.60
45207;DHT22;30950;53.086;21.576;2023-05-23T08:24:02;21.90;62.50
45207;DHT22;30950;53.086;21.576;2023-05-23T08:26:31;22.00;61.80
45207;DHT22;30950;53.086;21.576;2023-05-23T08:29:03;22.10;60.60
45207;DHT22;30950;53.086;21.576;2023-05-23T08:31:31;22.10;60.30
45207;DHT22;30950;53.086;21.576;2023-05-23T08:34:03;22.20;59.90
45207;DHT22;30950;53.086;21.576;2023-05-23T08:36:30;22.20;59.40
45207;DHT22;30950;53.086;21.576;2023-05-23T08:39:03;22.30;59.00
45207;DHT22;30950;53.086;21.576;2023-05-23T08:41:35;22.30;58.50
45207;DHT22;30950;53.086;21.576;2023-05-23T08:44:08;22.40;57.70
45207;DHT22;30950;53.086;21.576;2023-05-23T08:46:44;22.40;57.10
45207;DHT22;30950;53.086;21.576;2023-05-23T08:49:21;22.50;57.70
45207;DHT22;30950;53.086;21.576;2023-05-23T08:51:51;22.60;57.60
45207;DHT22;30950;53.086;21.576;2023-05-23T08:54:22;22.70;56.00
45207;DHT22;30950;53.086;21.576;2023-05-23T08:56:49;22.70;54.80
45207;DHT22;30950;53.086;21.576;2023-05-23T08:59:19;22.80;54.80
45207;DHT22;30950;53.086;21.576;2023-05-23T09:01:47;22.90;53.70
45207;DHT22;30950;53.086;21.576;2023-05-23T09:04:16;22.90;52.70
45207;DHT22;30950;53.086;21.576;2023-05-23T09:07:00;22.90;53.30
45207;DHT22;30950;53.086;21.576;2023-05-23T09:09:29;23.00;53.70
45207;DHT22;30950;53.086;21.576;2023-05-23T09:11:58;23.00;54.10
45207;DHT22;30950;53.086;21.576;2023-05-23T09:14:28;23.20;53.00
45207;DHT22;30950;53.086;21.576;2023-05-23T09:17:04;23.30;53.40
45207;DHT22;30950;53.086;21.576;2023-05-23T09:19:32;23.40;53.80
45207;DHT22;30950;53.086;21.576;2023-05-23T09:22:13;23.40;52.60
45207;DHT22;30950;53.086;21.576;2023-05-23T09:24:55;23.50;52.10
45207;DHT22;30950;53.086;21.576;2023-05-23T09:27:23;23.60;52.60
45207;DHT22;30950;53.086;21.576;2023-05-23T09:29:51;23.70;51.80
45207;DHT22;30950;53.086;21.576;2023-05-23T09:32:20;23.80;50.80
45207;DHT22;30950;53.086;21.576;2023-05-23T09:34:55;23.80;51.20
45207;DHT22;30950;53.086;21.576;2023-05-23T09:40:01;23.90;50.60
45207;DHT22;30950;53.086;21.576;2023-05-23T09:42:32;23.90;50.60
45207;DHT22;30950;53.086;21.576;2023-05-23T09:45:00;24.00;51.10
45207;DHT22;30950;53.086;21.576;2023-05-23T09:47:30;24.10;50.70
45207;DHT22;30950;53.086;21.576;2023-05-23T09:49:58;24.20;46.90
45207;DHT22;30950;53.086;21.576;2023-05-23T09:52:26;24.20;48.40
45207;DHT22;30950;53.086;21.576;2023-05-23T09:54:53;24.30;47.40
45207;DHT22;30950;53.086;21.576;2023-05-23T09:57:21;24.20;48.00
45207;DHT22;30950;53.086;21.576;2023-05-23T09:59:53;24.30;49.30
45207;DHT22;30950;53.086;21.576;2023-05-23T10:05:47;24.50;48.80
45207;DHT22;30950;53.086;21.576;2023-05-23T10:08:38;24.60;47.00
45207;DHT22;30950;53.086;21.576;2023-05-23T10:13:45;24.60;46.40
45207;DHT22;30950;53.086;21.576;2023-05-23T10:16:22;24.60;46.30
45207;DHT22;30950;53.086;21.576;2023-05-23T10:18:56;24.50;46.30
45207;DHT22;30950;53.086;21.576;2023-05-23T10:21:29;24.50;46.80
45207;DHT22;30950;53.086;21.576;2023-05-23T10:23:59;24.60;46.30
45207;DHT22;30950;53.086;21.576;2023-05-23T10:26:27;24.80;47.30
45207;DHT22;30950;53.086;21.576;2023-05-23T10:28:54;25.30;47.20
45207;DHT22;30950;53.086;21.576;2023-05-23T10:31:23;25.80;46.20
45207;DHT22;30950;53.086;21.576;2023-05-23T10:34:01;26.30;46.40
45207;DHT22;30950;53.086;21.576;2023-05-23T10:36:43;26.70;44.10
45207;DHT22;30950;53.086;21.576;2023-05-23T10:42:22;26.40;41.90
45207;DHT22;30950;53.086;21.576;2023-05-23T10:45:13;26.40;42.10
45207;DHT22;30950;53.086;21.576;2023-05-23T10:47:41;26.20;42.60
45207;DHT22;30950;53.086;21.576;2023-05-23T10:50:12;26.10;43.70
45207;DHT22;30950;53.086;21.576;2023-05-23T10:52:41;26.00;42.60
45207;DHT22;30950;53.086;21.576;2023-05-23T10:55:13;25.90;43.60
45207;DHT22;30950;53.086;21.576;2023-05-23T10:57:41;25.80;43.20
45207;DHT22;30950;53.086;21.576;2023-05-23T11:00:14;25.80;43.00
45207;DHT22;30950;53.086;21.576;2023-05-23T11:02:52;25.70;43.20
45207;DHT22;30950;53.086;21.576;2023-05-23T11:05:23;25.70;43.70
45207;DHT22;30950;53.086;21.576;2023-05-23T11:10:52;25.50;44.20
45207;DHT22;30950;53.086;21.576;2023-05-23T11:13:20;25.50;43.80
45207;DHT22;30950;53.086;21.576;2023-05-23T11:15:48;25.50;44.70
45207;DHT22;30950;53.086;21.576;2023-05-23T11:18:25;25.60;45.00
45207;DHT22;30950;53.086;21.576;2023-05-23T11:20:53;25.70;45.60
45207;DHT22;30950;53.086;21.576;2023-05-23T11:23:22;25.80;44.70
45207;DHT22;30950;53.086;21.576;2023-05-23T11:25:51;25.90;44.50
45207;DHT22;30950;53.086;21.576;2023-05-23T11:28:19;25.90;43.90
45207;DHT22;30950;53.086;21.576;2023-05-23T11:30:47;25.80;43.50
45207;DHT22;30950;53.086;21.576;2023-05-23T11:33:16;25.70;43.70
45207;DHT22;30950;53.086;21.576;2023-05-23T11:35:48;25.80;44.20
45207;DHT22;30950;53.086;21.576;2023-05-23T11:38:16;25.80;44.10
45207;DHT22;30950;53.086;21.576;2023-05-23T11:40:44;25.70;43.90
45207;DHT22;30950;53.086;21.576;2023-05-23T11:43:14;25.80;44.60
45207;DHT22;30950;53.086;21.576;2023-05-23T11:45:42;25.80;44.60
45207;DHT22;30950;53.086;21.576;2023-05-23T11:48:11;25.90;44.60
45207;DHT22;30950;53.086;21.576;2023-05-23T11:50:48;26.10;43.90
45207;DHT22;30950;53.086;21.576;2023-05-23T11:53:17;26.20;43.70
45207;DHT22;30950;53.086;21.576;2023-05-23T11:55:54;26.20;43.10
45207;DHT22;30950;53.086;21.576;2023-05-23T11:58:26;26.30;43.60
45207;DHT22;30950;53.086;21.576;2023-05-23T12:03:30;26.50;42.90
45207;DHT22;30950;53.086;21.576;2023-05-23T12:05:58;26.50;43.10
45207;DHT22;30950;53.086;21.576;2023-05-23T12:08:25;26.60;43.20
45207;DHT22;30950;53.086;21.576;2023-05-23T12:10:56;26.60;43.20
45207;DHT22;30950;53.086;21.576;2023-05-23T12:13:26;26.70;42.90
45207;DHT22;30950;53.086;21.576;2023-05-23T12:15:55;26.70;42.60
45207;DHT22;30950;53.086;21.576;2023-05-23T12:18:26;26.70;43.10
45207;DHT22;30950;53.086;21.576;2023-05-23T12:20:53;26.70;43.50
45207;DHT22;30950;53.086;21.576;2023-05-23T12:23:21;26.80;43.70
45207;DHT22;30950;53.086;21.576;2023-05-23T12:25:53;26.90;43.20
45207;DHT22;30950;53.086;21.576;2023-05-23T12:28:34;26.90;42.80
45207;DHT22;30950;53.086;21.576;2023-05-23T12:31:20;27.10;42.90
45207;DHT22;30950;53.086;21.576;2023-05-23T12:33:51;27.40;43.50
45207;DHT22;30950;53.086;21.576;2023-05-23T12:36:23;27.60;43.70
45207;DHT22;30950;53.086;21.576;2023-05-23T12:38:51;27.80;44.40
45207;DHT22;30950;53.086;21.576;2023-05-23T12:41:20;28.00;42.70
45207;DHT22;30950;53.086;21.576;2023-05-23T12:43:50;28.20;43.00
45207;DHT22;30950;53.086;21.576;2023-05-23T12:46:22;28.20;42.60
45207;DHT22;30950;53.086;21.576;2023-05-23T12:48:50;28.40;42.10
45207;DHT22;30950;53.086;21.576;2023-05-23T12:51:19;28.40;42.20
45207;DHT22;30950;53.086;21.576;2023-05-23T12:53:47;28.60;42.60
45207;DHT22;30950;53.086;21.576;2023-05-23T12:56:14;28.80;42.10
45207;DHT22;30950;53.086;21.576;2023-05-23T12:58:41;29.10;40.50
45207;DHT22;30950;53.086;21.576;2023-05-23T13:01:09;29.40;42.00
45207;DHT22;30950;53.086;21.576;2023-05-23T13:03:37;30.10;41.00
45207;DHT22;30950;53.086;21.576;2023-05-23T13:06:05;30.70;41.00
45207;DHT22;30950;53.086;21.576;2023-05-23T13:08:33;31.30;40.10
45207;DHT22;30950;53.086;21.576;2023-05-23T13:11:00;31.90;40.20
45207;DHT22;30950;53.086;21.576;2023-05-23T13:13:27;32.50;39.70
45207;DHT22;30950;53.086;21.576;2023-05-23T13:15:55;32.90;38.80
45207;DHT22;30950;53.086;21.576;2023-05-23T13:18:22;33.50;39.00
45207;DHT22;30950;53.086;21.576;2023-05-23T13:20:50;33.70;37.30
45207;DHT22;30950;53.086;21.576;2023-05-23T13:23:17;33.80;37.00
45207;DHT22;30950;53.086;21.576;2023-05-23T13:25:44;33.90;36.90
45207;DHT22;30950;53.086;21.576;2023-05-23T13:28:12;34.00;36.70
45207;DHT22;30950;53.086;21.576;2023-05-23T13:30:39;34.10;36.60
45207;DHT22;30950;53.086;21.576;2023-05-23T13:33:10;34.10;35.80
45207;DHT22;30950;53.086;21.576;2023-05-23T13:35:37;34.10;36.40
45207;DHT22;30950;53.086;21.576;2023-05-23T13:38:05;34.00;35.80
45207;DHT22;30950;53.086;21.576;2023-05-23T13:40:32;33.90;35.60
45207;DHT22;30950;53.086;21.576;2023-05-23T13:42:59;33.90;35.80
45207;DHT22;30950;53.086;21.576;2023-05-23T13:45:27;33.80;36.00
45207;DHT22;30950;53.086;21.576;2023-05-23T13:47:54;33.40;36.00
45207;DHT22;30950;53.086;21.576;2023-05-23T13:50:21;33.40;36.10
45207;DHT22;30950;53.086;21.576;2023-05-23T13:52:49;33.30;36.00
45207;DHT22;30950;53.086;21.576;2023-05-23T13:55:17;33.20;36.10
45207;DHT22;30950;53.086;21.576;2023-05-23T13:57:45;32.80;35.90
45207;DHT22;30950;53.086;21.576;2023-05-23T14:00:12;32.30;35.60
45207;DHT22;30950;53.086;21.576;2023-05-23T14:02:40;31.70;36.10
45207;DHT22;30950;53.086;21.576;2023-05-23T14:05:08;31.10;36.30
45207;DHT22;30950;53.086;21.576;2023-05-23T14:07:36;30.40;36.40
45207;DHT22;30950;53.086;21.576;2023-05-23T14:10:04;29.80;37.20
45207;DHT22;30950;53.086;21.576;2023-05-23T14:12:33;29.30;37.80
45207;DHT22;30950;53.086;21.576;2023-05-23T14:15:00;28.80;38.20
45207;DHT22;30950;53.086;21.576;2023-05-23T14:17:28;28.40;38.60
45207;DHT22;30950;53.086;21.576;2023-05-23T14:19:55;28.00;38.80
45207;DHT22;30950;53.086;21.576;2023-05-23T14:22:22;27.80;39.10
45207;DHT22;30950;53.086;21.576;2023-05-23T14:24:49;27.60;39.20
45207;DHT22;30950;53.086;21.576;2023-05-23T14:27:17;27.40;39.60
45207;DHT22;30950;53.086;21.576;2023-05-23T14:29:46;27.20;40.00
45207;DHT22;30950;53.086;21.576;2023-05-23T14:32:13;27.10;40.70
45207;DHT22;30950;53.086;21.576;2023-05-23T14:34:40;26.90;40.40
45207;DHT22;30950;53.086;21.576;2023-05-23T14:37:08;26.90;40.50
45207;DHT22;30950;53.086;21.576;2023-05-23T14:39:35;26.80;40.70
45207;DHT22;30950;53.086;21.576;2023-05-23T14:42:03;26.70;40.80
45207;DHT22;30950;53.086;21.576;2023-05-23T14:44:30;26.60;40.90
45207;DHT22;30950;53.086;21.576;2023-05-23T14:46:57;26.60;41.30
45207;DHT22;30950;53.086;21.576;2023-05-23T14:49:25;26.50;41.00
45207;DHT22;30950;53.086;21.576;2023-05-23T14:51:52;26.50;41.00
45207;DHT22;30950;53.086;21.576;2023-05-23T14:54:19;26.60;41.50
45207;DHT22;30950;53.086;21.576;2023-05-23T14:56:47;26.80;41.50
45207;DHT22;30950;53.086;21.576;2023-05-23T14:59:17;27.30;42.20
45207;DHT22;30950;53.086;21.576;2023-05-23T15:01:44;27.70;41.30
45207;DHT22;30950;53.086;21.576;2023-05-23T15:04:12;28.20;41.30
45207;DHT22;30950;53.086;21.576;2023-05-23T15:06:40;28.60;41.20
45207;DHT22;30950;53.086;21.576;2023-05-23T15:09:07;28.30;40.30
45207;DHT22;30950;53.086;21.576;2023-05-23T15:11:36;29.40;40.00
45207;DHT22;30950;53.086;21.576;2023-05-23T15:14:05;29.60;39.90
45207;DHT22;30950;53.086;21.576;2023-05-23T15:16:33;29.70;39.30
45207;DHT22;30950;53.086;21.576;2023-05-23T15:19:03;29.60;39.10
45207;DHT22;30950;53.086;21.576;2023-05-23T15:21:31;29.50;39.30
45207;DHT22;30950;53.086;21.576;2023-05-23T15:23:59;29.40;39.00
45207;DHT22;30950;53.086;21.576;2023-05-23T15:26:26;29.40;39.90
45207;DHT22;30950;53.086;21.576;2023-05-23T15:28:54;29.50;39.60
45207;DHT22;30950;53.086;21.576;2023-05-23T15:31:22;29.60;39.30
45207;DHT22;30950;53.086;21.576;2023-05-23T15:33:49;29.60;38.90
45207;DHT22;30950;53.086;21.576;2023-05-23T15:36:17;29.40;38.70
45207;DHT22;30950;53.086;21.576;2023-05-23T15:38:44;29.10;39.40
45207;DHT22;30950;53.086;21.576;2023-05-23T15:41:12;28.60;39.00
45207;DHT22;30950;53.086;21.576;2023-05-23T15:43:39;28.20;39.30
45207;DHT22;30950;53.086;21.576;2023-05-23T15:46:06;27.80;39.70
45207;DHT22;30950;53.086;21.576;2023-05-23T15:48:33;27.40;39.70
45207;DHT22;30950;53.086;21.576;2023-05-23T15:51:01;27.10;40.10
45207;DHT22;30950;53.086;21.576;2023-05-23T15:53:29;26.80;40.60